Time;durP1;ratioP1;P1;durP2;ratioP2;P2;SDS_P1;SDS_P2;PMS_P1;PMS_P2;Temp;Humidity;BMP_temperature;BMP_pressure;BME280_temperature;BME280_humidity;BME280_pressure;Samples;Min_cycle;Max_cycle;Signal;HPM_P1;HPM_P2
2022/03/20 00:00:22;;;;;;;21.52;12.40;;;;;;;0.17;nan;103057.53;5100569;28;20031;-68
2022/03/20 00:02:48;;;;;;;23.63;11.85;;;;;;;0.17;nan;103059.31;5101560;28;20452;-67
2022/03/20 00:05:14;;;;;;;26.25;12.27;;;;;;;-0.24;nan;102990.88;5098355;28;20028;-69
2022/03/20 00:07:41;;;;;;;25.92;12.15;;;;;;;0.18;nan;103058.38;5102112;28;20385;-69
2022/03/20 00:10:08;;;;;;;25.60;12.60;;;;;;;0.04;nan;103054.00;5091896;28;20107;-70
2022/03/20 00:12:34;;;;;;;29.60;13.27;;;;;;;-0.07;nan;103041.69;5106510;28;20047;-69
2022/03/20 00:15:00;;;;;;;28.50;13.00;;;;;;;0.01;nan;103056.78;5109307;28;20028;-69
2022/03/20 00:17:25;;;;;;;27.98;12.65;;;;;;;-0.02;nan;103062.16;5108848;28;20435;-70
2022/03/20 00:19:51;;;;;;;25.05;12.38;;;;;;;-0.05;nan;103060.56;5093262;28;20118;-69
2022/03/20 00:22:16;;;;;;;32.78;14.20;;;;;;;-0.17;nan;103042.31;5106125;28;20035;-69
2022/03/20 00:24:44;;;;;;;30.85;13.48;;;;;;;-0.19;nan;103059.69;5107157;28;20039;-70
2022/03/20 00:27:12;;;;;;;30.08;13.68;;;;;;;-0.16;nan;103072.47;5097900;28;20035;-70
2022/03/20 00:29:38;;;;;;;28.05;13.88;;;;;;;-0.22;nan;103066.72;5097695;28;20111;-70
2022/03/20 00:32:05;;;;;;;34.45;14.70;;;;;;;-0.20;nan;103082.16;5094208;28;20038;-70
2022/03/20 00:34:31;;;;;;;34.63;15.00;;;;;;;-0.28;nan;103076.59;5098708;28;20040;-71
2022/03/20 00:36:57;;;;;;;31.48;14.48;;;;;;;-0.25;nan;103087.59;5101230;28;20093;-69
2022/03/20 00:39:22;;;;;;;31.40;15.00;;;;;;;-0.29;nan;103086.13;5108432;28;20118;-68
2022/03/20 00:41:48;;;;;;;36.15;16.08;;;;;;;-0.37;nan;103077.94;5105585;28;20036;-67
2022/03/20 00:44:13;;;;;;;40.33;17.58;;;;;;;-0.38;nan;103086.63;5100823;28;20032;-67
2022/03/20 00:46:39;;;;;;;37.22;16.95;;;;;;;-0.39;nan;103090.13;5097007;28;20046;-68
2022/03/20 00:49:05;;;;;;;39.63;17.83;;;;;;;-0.57;nan;103075.66;5102818;28;20031;-68
2022/03/20 00:51:31;;;;;;;43.65;19.02;;;;;;;-0.54;nan;103097.00;5101229;28;20051;-67
2022/03/20 00:53:56;;;;;;;38.05;18.33;;;;;;;-0.73;nan;103081.66;5107897;28;20036;-68
2022/03/20 00:56:22;;;;;;;51.75;20.95;;;;;;;-0.68;nan;103092.59;5114562;28;20110;-68
2022/03/20 00:58:47;;;;;;;50.55;21.70;;;;;;;-0.69;nan;103092.69;5109535;28;20128;-67
2022/03/20 01:01:14;;;;;;;50.53;21.85;;;;;;;-0.75;nan;103093.84;5111300;28;20064;-68
2022/03/20 01:03:41;;;;;;;47.92;21.38;;;;;;;-0.92;nan;103070.66;5115643;28;20028;-68
2022/03/20 01:06:07;;;;;;;48.05;22.38;;;;;;;-0.86;nan;103083.28;5120217;28;20500;-68
2022/03/20 01:08:37;;;;;;;47.70;21.40;;;;;;;-1.03;nan;103062.63;5096690;28;20032;-67
2022/03/20 01:11:04;;;;;;;42.90;20.30;;;;;;;-0.94;nan;103096.59;5098127;28;20036;-67
2022/03/20 01:13:30;;;;;;;42.03;18.88;;;;;;;-0.99;nan;103097.78;5105000;28;20036;-68
2022/03/20 01:15:56;;;;;;;43.05;19.02;;;;;;;-1.19;nan;103091.09;5104031;28;20028;-67
2022/03/20 01:18:22;;;;;;;39.05;16.98;;;;;;;-1.14;nan;103100.25;5095912;28;20778;-67
2022/03/20 01:20:48;;;;;;;34.83;16.08;;;;;;;-1.22;nan;103097.25;5105613;28;20039;-68
2022/03/20 01:23:13;;;;;;;36.00;15.48;;;;;;;-1.37;nan;103092.88;5107725;28;20485;-68
2022/03/20 01:25:40;;;;;;;29.17;13.18;;;;;;;-1.45;nan;103100.19;5104861;28;20032;-67
2022/03/20 01:28:05;;;;;;;27.45;13.48;;;;;;;-1.62;nan;103078.66;5101736;28;20085;-68
2022/03/20 01:30:31;;;;;;;25.90;13.07;;;;;;;-1.69;nan;103073.88;5104937;28;20032;-66
2022/03/20 01:32:56;;;;;;;29.63;14.40;;;;;;;-1.74;nan;103085.28;5100841;28;20072;-67
2022/03/20 01:35:22;;;;;;;31.33;14.10;;;;;;;-1.68;nan;103091.88;5106655;28;20509;-67
2022/03/20 01:37:47;;;;;;;30.90;14.15;;;;;;;-1.72;nan;103085.22;5106312;28;20115;-67
2022/03/20 01:40:13;;;;;;;39.50;14.60;;;;;;;-1.83;nan;103077.16;5093345;28;20027;-67
2022/03/20 01:42:39;;;;;;;37.00;16.10;;;;;;;-1.84;nan;103081.50;5097921;28;20032;-67
2022/03/20 01:45:16;;;;;;;36.13;15.80;;;;;;;-1.77;nan;103103.53;5098078;28;20050;-67
2022/03/20 01:47:46;;;;;;;29.58;14.50;;;;;;;-1.80;nan;103105.41;5092702;28;20043;-67
2022/03/20 01:50:19;;;;;;;32.78;13.70;;;;;;;-1.94;nan;103086.28;5095836;28;20045;-67
2022/03/20 01:52:47;;;;;;;35.75;15.93;;;;;;;-1.88;nan;103095.47;5094638;28;20089;-67
2022/03/20 01:55:13;;;;;;;28.90;13.57;;;;;;;-2.03;nan;103071.25;5104807;28;20486;-67
2022/03/20 01:57:39;;;;;;;31.88;14.48;;;;;;;-1.86;nan;103091.06;5073797;28;20047;-66
2022/03/20 02:00:10;;;;;;;31.27;14.68;;;;;;;-1.85;nan;103089.31;5099804;28;20047;-68
2022/03/20 02:02:36;;;;;;;32.38;14.63;;;;;;;-1.94;nan;103085.44;5094514;28;20051;-67
2022/03/20 02:05:02;;;;;;;31.67;14.77;;;;;;;-1.93;nan;103089.69;5081226;28;20035;-67
2022/03/20 02:07:28;;;;;;;30.38;14.90;;;;;;;-2.00;nan;103085.75;5107008;28;20027;-67
2022/03/20 02:09:54;;;;;;;34.33;14.75;;;;;;;-2.05;nan;103078.22;5098004;28;20043;-68
2022/03/20 02:12:19;;;;;;;36.13;15.82;;;;;;;-2.03;nan;103091.06;5107913;28;20084;-68
2022/03/20 02:14:45;;;;;;;35.53;15.90;;;;;;;-2.10;nan;103090.53;5102635;28;20031;-67
2022/03/20 02:17:11;;;;;;;31.33;14.35;;;;;;;-2.09;nan;103092.19;5092809;28;20132;-68
2022/03/20 02:19:39;;;;;;;31.35;15.30;;;;;;;-2.18;nan;103085.75;5085708;28;20046;-67
2022/03/20 02:22:05;;;;;;;36.15;15.93;;;;;;;-2.25;nan;103074.06;5103563;28;20504;-66
2022/03/20 02:24:40;;;;;;;36.60;16.08;;;;;;;-2.15;nan;103093.34;5107005;28;20492;-67
2022/03/20 02:27:40;;;;;;;38.72;16.23;;;;;;;-2.17;nan;103087.41;5100097;28;20028;-67
2022/03/20 02:30:14;;;;;;;38.67;17.73;;;;;;;-2.21;nan;103090.22;5049670;28;20032;-68
2022/03/20 02:32:42;;;;;;;41.83;18.65;;;;;;;-2.23;nan;103100.59;5107575;28;20063;-68
2022/03/20 02:35:14;;;;;;;37.88;16.08;;;;;;;-2.30;nan;103094.06;5098910;28;20082;-68
2022/03/20 02:37:42;;;;;;;40.38;17.73;;;;;;;-2.24;nan;103098.13;5102882;28;20055;-68
2022/03/20 02:40:08;;;;;;;53.50;19.92;;;;;;;-2.25;nan;103101.59;5109921;28;20108;-67
2022/03/20 02:42:35;;;;;;;92.80;29.17;;;;;;;-2.27;nan;103090.53;5103273;28;20432;-68
2022/03/20 02:45:03;;;;;;;106.15;32.10;;;;;;;-2.25;nan;103101.59;5108621;28;20024;-67
2022/03/20 02:47:48;;;;;;;73.88;24.83;;;;;;;-2.41;nan;103080.88;5108999;28;20077;-66
2022/03/20 02:50:16;;;;;;;47.67;20.08;;;;;;;-2.27;nan;103104.25;5095223;28;20062;-67
2022/03/20 02:52:59;;;;;;;46.20;19.85;;;;;;;-2.40;nan;103091.09;5100156;28;20036;-66
2022/03/20 02:55:27;;;;;;;42.28;18.85;;;;;;;-2.31;nan;103099.31;5110584;28;20099;-68
2022/03/20 02:57:55;;;;;;;42.22;18.33;;;;;;;-2.33;nan;103101.13;5108224;28;20036;-66
2022/03/20 03:00:25;;;;;;;40.03;18.58;;;;;;;-2.29;nan;103103.50;5097874;28;20039;-66
2022/03/20 03:02:52;;;;;;;42.55;17.98;;;;;;;-2.38;nan;103089.28;5077377;28;20099;-67
2022/03/20 03:05:20;;;;;;;40.05;18.13;;;;;;;-2.27;nan;103103.44;5073788;28;20125;-68
2022/03/20 03:13:18;;;;;;;38.15;16.65;;;;;;;-2.41;nan;103112.66;5078608;28;20064;-68
2022/03/20 03:15:44;;;;;;;36.08;17.27;;;;;;;-2.54;nan;103096.06;5085592;28;20032;-67
2022/03/20 03:18:10;;;;;;;39.35;16.95;;;;;;;-2.61;nan;103094.69;5079163;28;20047;-68
2022/03/20 03:20:36;;;;;;;37.13;17.55;;;;;;;-2.50;nan;103122.59;5073513;28;20060;-67
2022/03/20 03:23:03;;;;;;;34.90;16.00;;;;;;;-2.73;nan;103093.56;5085140;28;20036;-67
2022/03/20 03:25:31;;;;;;;34.28;16.05;;;;;;;-2.58;nan;103118.63;5083050;28;20126;-68
2022/03/20 03:27:56;;;;;;;43.17;16.80;;;;;;;-2.72;nan;103091.81;5077358;28;20119;-68
2022/03/20 03:30:22;;;;;;;34.22;16.42;;;;;;;-2.70;nan;103102.88;5081372;28;20036;-69
2022/03/20 03:32:47;;;;;;;38.80;16.85;;;;;;;-2.63;nan;103118.00;5072820;28;20032;-66
2022/03/20 03:38:01;;;;;;;36.63;17.50;;;;;;;-2.50;nan;103117.44;5087528;28;20040;-67
2022/03/20 03:40:26;;;;;;;37.05;16.45;;;;;;;-2.52;nan;103120.06;5079466;28;20046;-68
2022/03/20 03:42:52;;;;;;;38.35;16.83;;;;;;;-2.58;nan;103128.94;5085562;28;20035;-68
2022/03/20 03:45:18;;;;;;;33.08;16.40;;;;;;;-2.64;nan;103136.94;5079677;28;20029;-67
2022/03/20 03:47:43;;;;;;;37.22;17.35;;;;;;;-2.80;nan;103108.47;5073063;28;20402;-69
2022/03/20 03:50:10;;;;;;;35.35;16.67;;;;;;;-2.60;nan;103142.81;5085051;28;20032;-68
2022/03/20 03:52:39;;;;;;;35.78;16.38;;;;;;;-2.64;nan;103128.38;5077349;28;20520;-69
2022/03/20 03:55:05;;;;;;;36.33;17.33;;;;;;;-2.54;nan;103129.63;5088016;28;20028;-68
2022/03/20 03:57:31;;;;;;;44.83;18.75;;;;;;;-2.51;nan;103139.81;5074222;28;20107;-68
2022/03/20 03:59:56;;;;;;;42.25;18.95;;;;;;;-2.60;nan;103123.00;5082555;28;20036;-68
2022/03/20 04:02:22;;;;;;;41.33;18.60;;;;;;;-2.55;nan;103130.53;5089479;28;20042;-67
2022/03/20 04:04:48;;;;;;;37.63;18.35;;;;;;;-2.46;nan;103150.75;5103215;28;20070;-68
2022/03/20 04:07:18;;;;;;;44.28;19.23;;;;;;;-2.46;nan;103152.50;5119279;28;20020;-66
2022/03/20 04:09:45;;;;;;;43.05;19.17;;;;;;;-2.56;nan;103144.34;5094459;28;20054;-67
2022/03/20 04:12:15;;;;;;;44.97;20.52;;;;;;;-2.49;nan;103155.19;5092442;28;20027;-68
2022/03/20 04:14:41;;;;;;;49.95;20.70;;;;;;;-2.50;nan;103158.69;5101762;28;20145;-66
2022/03/20 04:17:07;;;;;;;46.38;20.27;;;;;;;-2.57;nan;103163.31;5108634;28;20043;-68
2022/03/20 04:19:32;;;;;;;45.80;20.08;;;;;;;-2.57;nan;103155.56;5103206;28;20385;-68
2022/03/20 04:21:59;;;;;;;49.90;20.77;;;;;;;-2.64;nan;103157.59;5105370;28;20612;-68
2022/03/20 04:24:25;;;;;;;44.38;19.88;;;;;;;-2.69;nan;103145.81;5101730;28;20036;-68
2022/03/20 04:26:51;;;;;;;44.30;19.73;;;;;;;-2.59;nan;103162.53;5104702;28;20493;-67
2022/03/20 04:29:20;;;;;;;47.42;20.30;;;;;;;-2.72;nan;103151.13;5085789;28;20040;-68
2022/03/20 04:31:45;;;;;;;45.17;20.55;;;;;;;-2.72;nan;103170.00;5096609;28;20393;-66
2022/03/20 04:34:11;;;;;;;43.88;20.02;;;;;;;-2.87;nan;103161.22;5090210;28;20044;-67
2022/03/20 04:36:36;;;;;;;44.67;19.52;;;;;;;-2.78;nan;103172.84;5100361;28;20096;-67
2022/03/20 04:39:03;;;;;;;49.00;20.13;;;;;;;-2.86;nan;103169.78;5078168;28;20035;-67
2022/03/20 04:41:29;;;;;;;46.33;20.48;;;;;;;-2.94;nan;103169.31;5104128;28;20058;-67
2022/03/20 04:43:54;;;;;;;38.05;18.17;;;;;;;-3.08;nan;103159.59;5107273;28;20062;-68
2022/03/20 04:46:20;;;;;;;45.50;18.88;;;;;;;-3.07;nan;103169.81;5096669;28;20028;-68
2022/03/20 04:59:49;;;;;;;47.25;21.77;;;;;;;-3.13;nan;103195.88;5045607;28;20036;-68
2022/03/20 05:02:14;;;;;;;55.92;24.45;;;;;;;-3.12;nan;103196.72;5049805;28;20081;-67
2022/03/20 05:04:40;;;;;;;69.55;29.98;;;;;;;-3.28;nan;103176.75;5037064;28;20033;-68
2022/03/20 05:07:07;;;;;;;77.07;31.23;;;;;;;-3.22;nan;103191.94;5047852;28;20033;-69
2022/03/20 05:15:06;;;;;;;54.15;22.77;;;;;;;-3.24;nan;103196.31;5048170;28;20120;-67
2022/03/20 05:17:31;;;;;;;42.30;19.58;;;;;;;-3.19;nan;103200.44;5050158;28;20116;-67
2022/03/20 05:19:56;;;;;;;49.28;20.45;;;;;;;-3.21;nan;103187.63;5045455;28;20073;-68
2022/03/20 05:22:22;;;;;;;52.88;21.15;;;;;;;-3.18;nan;103191.81;5030287;28;20051;-68
2022/03/20 05:24:47;;;;;;;54.17;21.73;;;;;;;-3.28;nan;103169.03;5046428;28;20032;-69
2022/03/20 05:27:12;;;;;;;49.97;21.38;;;;;;;-3.10;nan;103202.63;5048279;28;20395;-69
2022/03/20 05:29:40;;;;;;;45.38;18.25;;;;;;;-3.02;nan;103208.28;5031062;28;20035;-70
2022/03/20 05:32:07;;;;;;;42.28;17.55;;;;;;;-3.03;nan;103199.72;5029930;28;20487;-69
2022/03/20 05:34:33;;;;;;;50.47;18.58;;;;;;;-2.93;nan;103207.88;5063564;28;20046;-67
2022/03/20 05:37:00;;;;;;;39.90;17.88;;;;;;;-2.93;nan;103196.75;5092727;28;20393;-68
2022/03/20 05:39:25;;;;;;;48.88;18.40;;;;;;;-2.84;nan;103201.50;5099292;28;20032;-68
2022/03/20 05:41:51;;;;;;;45.25;17.73;;;;;;;-2.92;nan;103190.66;5101101;28;20046;-68
2022/03/20 05:44:21;;;;;;;37.55;16.70;;;;;;;-3.26;nan;103135.44;5098727;28;20123;-67
2022/03/20 05:46:51;;;;;;;34.88;17.30;;;;;;;-2.77;nan;103213.22;5092855;28;20042;-68
2022/03/20 05:49:20;;;;;;;33.55;16.70;;;;;;;-2.73;nan;103219.91;5105629;28;20039;-67
2022/03/20 05:51:49;;;;;;;37.58;15.95;;;;;;;-2.64;nan;103223.81;5079188;28;20039;-68
2022/03/20 05:54:15;;;;;;;26.63;12.20;;;;;;;-2.54;nan;103227.66;5097683;28;20484;-68
2022/03/20 05:59:25;;;;;;;37.22;16.17;;;;;;;-2.41;nan;103233.09;5103632;28;20122;-68
2022/03/20 06:01:51;;;;;;;41.47;16.77;;;;;;;-2.36;nan;103233.72;5098179;28;20553;-67
2022/03/20 06:04:17;;;;;;;30.85;15.57;;;;;;;-2.39;nan;103228.72;5103757;28;20521;-68
2022/03/20 06:06:43;;;;;;;33.30;15.45;;;;;;;-2.28;nan;103241.13;5091984;28;20044;-66
2022/03/20 06:09:09;;;;;;;32.28;14.88;;;;;;;-2.23;nan;103244.31;5107154;28;20032;-67
2022/03/20 06:11:34;;;;;;;31.35;14.32;;;;;;;-2.28;nan;103225.63;5111166;28;20028;-67
2022/03/20 06:14:03;;;;;;;26.95;13.80;;;;;;;-2.04;nan;103244.28;5094914;28;20085;-69
2022/03/20 06:16:29;;;;;;;;;;;;;;;-1.95;nan;103243.88;5091037;28;20442;-68
2022/03/20 06:18:55;;;;;;;25.75;11.88;;;;;;;-1.87;nan;103251.25;5097757;28;19998;-68
2022/03/20 06:21:22;;;;;;;23.90;12.02;;;;;;;-1.80;nan;103252.63;5089740;28;20446;-68
2022/03/20 06:23:48;;;;;;;25.42;12.30;;;;;;;-1.70;nan;103253.84;5088137;28;20477;-68
2022/03/20 06:26:14;;;;;;;25.00;11.88;;;;;;;-1.73;nan;103230.75;5082750;28;20036;-68
2022/03/20 06:28:40;;;;;;;26.17;12.55;;;;;;;-1.41;nan;103261.94;5098695;28;20031;-68
2022/03/20 06:31:10;;;;;;;29.77;11.85;;;;;;;-1.35;nan;103251.31;5097118;28;20506;-68
2022/03/20 06:33:36;;;;;;;30.45;13.38;;;;;;;-1.36;nan;103237.56;5073010;28;20122;-68
2022/03/20 06:36:02;;;;;;;28.95;12.35;;;;;;;-1.05;nan;103261.00;5097284;28;20032;-68
2022/03/20 06:38:27;;;;;;;27.98;12.25;;;;;;;-0.97;nan;103258.88;5105878;28;20031;-69
2022/03/20 06:40:53;;;;;;;29.35;12.35;;;;;;;-0.94;nan;103244.03;5092331;28;20126;-68
2022/03/20 06:43:18;;;;;;;25.85;11.70;;;;;;;-0.66;nan;103253.78;5104282;28;20046;-68
2022/03/20 06:45:43;;;;;;;24.35;12.60;;;;;;;-0.68;nan;103245.25;5097516;28;20090;-68
2022/03/20 06:48:10;;;;;;;20.50;10.75;;;;;;;-0.52;nan;103249.63;5087704;28;20046;-68
2022/03/20 06:50:35;;;;;;;22.45;10.77;;;;;;;-0.37;nan;103253.97;5101786;28;20129;-68
2022/03/20 06:53:03;;;;;;;21.73;9.82;;;;;;;-0.26;nan;103250.84;5076554;28;20071;-68
2022/03/20 06:55:30;;;;;;;23.85;10.93;;;;;;;-0.24;nan;103230.84;5099230;28;20077;-67
2022/03/20 06:58:00;;;;;;;17.77;9.45;;;;;;;0.05;nan;103254.31;5095650;28;20032;-67
2022/03/20 07:00:28;;;;;;;19.58;9.43;;;;;;;0.33;nan;103253.59;5101516;28;20035;-68
2022/03/20 07:02:54;;;;;;;17.48;9.32;;;;;;;0.49;nan;103250.97;5095567;28;20044;-69
2022/03/20 07:05:21;;;;;;;18.25;8.57;;;;;;;0.67;nan;103249.06;5101730;28;20032;-67
2022/03/20 07:07:47;;;;;;;18.88;9.50;;;;;;;0.64;nan;103234.50;5085066;28;20046;-69
2022/03/20 07:10:19;;;;;;;20.48;9.45;;;;;;;0.74;nan;103243.44;5109146;28;20032;-68
2022/03/20 07:12:45;;;;;;;16.92;8.95;;;;;;;0.90;nan;103245.13;5119639;28;20061;-68
2022/03/20 07:15:11;;;;;;;19.05;9.55;;;;;;;1.04;nan;103252.91;5110832;28;20032;-68
2022/03/20 07:17:37;;;;;;;20.17;9.40;;;;;;;1.15;nan;103247.94;5113079;28;20024;-68
2022/03/20 07:20:12;;;;;;;17.67;9.60;;;;;;;1.29;nan;103228.91;5107454;28;20028;-67
2022/03/20 07:22:37;;;;;;;19.10;9.27;;;;;;;1.36;nan;103225.00;5117661;28;20028;-68
2022/03/20 07:30:32;;;;;;;18.50;8.65;;;;;;;;;;5104362;28;20028;-69
2022/03/20 07:32:57;;;;;;;16.88;9.00;;;;;;;;;;5099205;28;20047;-69
2022/03/20 07:35:23;;;;;;;16.60;8.87;;;;;;;;;;5082395;28;20069;-69
2022/03/20 07:37:49;;;;;;;18.55;9.30;;;;;;;2.09;nan;103211.72;5084770;28;20283;-70
2022/03/20 07:40:14;;;;;;;14.82;8.35;;;;;;;;;;5079257;28;20122;-68
2022/03/20 07:42:39;;;;;;;17.08;8.48;;;;;;;;;;5099814;28;20648;-69
2022/03/20 07:45:05;;;;;;;19.63;9.77;;;;;;;;;;5082064;28;20045;-69
2022/03/20 07:47:30;;;;;;;15.73;8.07;;;;;;;;;;5098793;28;20276;-68
2022/03/20 07:49:55;;;;;;;16.42;8.85;;;;;;;;;;5107865;28;20028;-68
2022/03/20 07:52:22;;;;;;;21.52;8.60;;;;;;;;;;5071954;28;20036;-68
2022/03/20 07:54:47;;;;;;;18.48;8.52;;;;;;;;;;5101554;28;20028;-67
2022/03/20 07:57:13;;;;;;;17.90;8.27;;;;;;;;;;5106365;28;20047;-69
2022/03/20 07:59:38;;;;;;;14.68;8.27;;;;;;;;;;5098154;28;20032;-68
2022/03/20 08:02:04;;;;;;;16.42;8.55;;;;;;;;;;5091626;28;20514;-67
2022/03/20 08:04:29;;;;;;;16.17;8.27;;;;;;;;;;5097584;28;20030;-67
2022/03/20 08:06:54;;;;;;;24.23;8.88;;;;;;;;;;5102185;28;20635;-68
2022/03/20 08:09:19;;;;;;;16.80;8.27;;;;;;;;;;5072348;28;20040;-68
2022/03/20 08:11:45;;;;;;;19.27;8.03;;;;;;;;;;5101551;28;20300;-68
2022/03/20 08:14:10;;;;;;;15.30;8.45;;;;;;;;;;5084543;28;20288;-68
2022/03/20 08:16:38;;;;;;;13.95;8.05;;;;;;;;;;5101495;28;20053;-68
2022/03/20 08:19:05;;;;;;;14.30;7.50;;;;;;;;;;5097493;28;20032;-68
2022/03/20 08:21:33;;;;;;;17.45;8.38;;;;;;;;;;5098943;28;20067;-69
2022/03/20 08:24:01;;;;;;;15.53;8.40;;;;;;;;;;5094138;28;20040;-68
2022/03/20 08:26:27;;;;;;;15.65;7.97;;;;;;;;;;5103905;28;20046;-68
2022/03/20 08:28:52;;;;;;;15.75;8.50;;;;;;;;;;5085383;28;20043;-68
2022/03/20 08:31:17;;;;;;;16.80;8.40;;;;;;;;;;5106376;28;20390;-68
2022/03/20 08:33:43;;;;;;;15.80;8.63;;;;;;;;;;5106770;28;20043;-69
2022/03/20 08:36:08;;;;;;;15.70;7.97;;;;;;;;;;5088767;28;20062;-68
2022/03/20 08:38:34;;;;;;;15.95;8.23;;;;;;;;;;5098495;28;20036;-68
2022/03/20 08:40:59;;;;;;;13.43;8.00;;;;;;;;;;5097502;28;20036;-68
2022/03/20 08:43:25;;;;;;;14.25;8.43;;;;;;;;;;5108414;28;20140;-67
2022/03/20 08:45:50;;;;;;;23.75;8.73;;;;;;;;;;5093919;28;20043;-68
2022/03/20 08:48:16;;;;;;;15.45;9.00;;;;;;;;;;5075481;28;20184;-68
2022/03/20 08:50:44;;;;;;;16.00;9.10;;;;;;;;;;5099020;28;20028;-68
2022/03/20 08:53:10;;;;;;;16.60;8.93;;;;;;;;;;5111936;28;20027;-68
2022/03/20 08:55:35;;;;;;;17.08;8.50;;;;;;;;;;5098241;28;20027;-68
2022/03/20 08:58:01;;;;;;;14.13;8.15;;;;;;;;;;5111395;28;20046;-68
2022/03/20 09:00:26;;;;;;;17.80;8.70;;;;;;;;;;5097790;28;20032;-70
2022/03/20 09:02:52;;;;;;;17.75;8.95;;;;;;;;;;5103209;28;20317;-70
2022/03/20 09:05:18;;;;;;;18.63;8.48;;;;;;;;;;5099082;28;20112;-69
2022/03/20 09:07:45;;;;;;;16.15;8.77;;;;;;;;;;5110087;28;20473;-69
2022/03/20 09:10:11;;;;;;;16.48;9.38;;;;;;;;;;5082722;28;20039;-69
2022/03/20 09:12:37;;;;;;;16.70;8.63;;;;;;;;;;5106664;28;20397;-69
2022/03/20 09:15:03;;;;;;;16.83;8.88;;;;;;;;;;5098837;28;20078;-69
2022/03/20 09:20:13;;;;;;;15.63;8.82;;;;;;;;;;5102131;28;20035;-67
2022/03/20 09:22:39;;;;;;;21.13;11.47;;;;;;;;;;5097031;28;20043;-70
2022/03/20 09:25:05;;;;;;;18.60;9.25;;;;;;;5.51;nan;103161.81;5078241;28;20768;-66
2022/03/20 09:27:30;;;;;;;20.63;10.45;;;;;;;5.66;nan;103157.13;5100235;28;20042;-66
2022/03/20 09:29:56;;;;;;;16.83;9.93;;;;;;;5.79;nan;103156.94;5099642;28;20032;-68
2022/03/20 09:32:21;;;;;;;18.38;10.40;;;;;;;5.65;nan;103135.38;5097022;28;20028;-67
2022/03/20 09:34:47;;;;;;;18.63;10.35;;;;;;;5.68;nan;103140.38;5089879;28;20488;-68
2022/03/20 09:37:12;;;;;;;16.17;9.05;;;;;;;5.70;nan;103151.53;5084621;28;20444;-68
2022/03/20 09:39:38;;;;;;;17.23;8.95;;;;;;;5.75;nan;103162.44;5097675;28;20393;-69
2022/03/20 09:42:06;;;;;;;14.65;8.82;;;;;;;5.70;nan;103154.13;5094929;28;20028;-68
2022/03/20 09:44:33;;;;;;;19.27;9.07;;;;;;;5.73;nan;103166.13;5074075;28;20515;-67
2022/03/20 09:46:59;;;;;;;22.30;9.30;;;;;;;5.60;nan;103127.06;5096309;28;20038;-67
2022/03/20 09:49:25;;;;;;;15.38;9.13;;;;;;;5.83;nan;103155.75;5098877;28;20126;-67
2022/03/20 09:51:52;;;;;;;15.27;9.13;;;;;;;5.85;nan;103144.22;5099698;28;20076;-67
2022/03/20 09:54:18;;;;;;;17.08;9.00;;;;;;;5.95;nan;103152.97;5106052;28;20031;-67
2022/03/20 09:56:43;;;;;;;16.73;9.30;;;;;;;5.71;nan;103116.56;5093618;28;20036;-68
2022/03/20 09:59:10;;;;;;;16.98;8.93;;;;;;;5.97;nan;103158.09;5103972;28;20531;-69
2022/03/20 10:01:36;;;;;;;16.95;8.68;;;;;;;5.96;nan;103161.66;5094406;28;20134;-67
2022/03/20 10:04:13;;;;;;;15.95;8.00;;;;;;;5.89;nan;103132.56;5094687;28;20752;-68
2022/03/20 10:06:40;;;;;;;13.95;7.88;;;;;;;6.03;nan;103152.34;5085407;28;20049;-68
2022/03/20 10:09:10;;;;;;;17.33;9.50;;;;;;;6.17;nan;103145.97;5083903;28;20431;-69
2022/03/20 10:11:41;;;;;;;17.77;9.07;;;;;;;6.46;nan;103142.69;5086463;28;20071;-68
2022/03/20 10:14:06;;;;;;;16.33;8.43;;;;;;;6.51;nan;103132.66;5098060;28;20028;-68
2022/03/20 10:16:32;;;;;;;13.95;8.13;;;;;;;6.53;nan;103134.19;5103521;28;20507;-69
2022/03/20 10:18:58;;;;;;;13.65;7.10;;;;;;;6.49;nan;103131.97;5084402;28;20035;-70
2022/03/20 10:21:45;;;;;;;14.95;7.60;;;;;;;6.45;nan;103126.16;5092212;28;20051;-69
2022/03/20 10:24:30;;;;;;;14.73;7.95;;;;;;;6.42;nan;103134.28;5104751;28;20046;-69
2022/03/20 10:26:59;;;;;;;13.30;7.68;;;;;;;6.39;nan;103129.28;5113333;28;20031;-69
2022/03/20 10:29:24;;;;;;;13.30;7.10;;;;;;;6.30;nan;103103.94;5090355;28;20053;-70
2022/03/20 10:31:52;;;;;;;12.98;7.22;;;;;;;6.28;nan;103101.44;5106171;28;20028;-69
2022/03/20 10:34:18;;;;;;;11.18;6.85;;;;;;;6.55;nan;103111.31;5084365;28;20042;-69
2022/03/20 10:36:44;;;;;;;12.52;7.47;;;;;;;6.65;nan;103110.53;5091339;28;20112;-69
2022/03/20 10:39:12;;;;;;;14.45;6.93;;;;;;;6.75;nan;103120.13;5083355;28;20035;-69
2022/03/20 10:41:39;;;;;;;10.30;5.95;;;;;;;6.84;nan;103115.84;5095133;28;20051;-71
2022/03/20 10:44:14;;;;;;;11.68;6.40;;;;;;;6.84;nan;103123.69;5099046;28;20043;-71
2022/03/20 10:46:40;;;;;;;11.77;6.30;;;;;;;6.81;nan;103110.88;5087877;28;20070;-70
2022/03/20 10:49:06;;;;;;;9.93;5.78;;;;;;;6.84;nan;103115.84;5095676;28;20067;-70
2022/03/20 10:51:40;;;;;;;12.63;6.20;;;;;;;6.82;nan;103108.16;5098188;28;20042;-69
2022/03/20 10:54:15;;;;;;;10.73;6.50;;;;;;;6.89;nan;103105.78;5083134;28;20062;-71
2022/03/20 10:56:56;;;;;;;12.88;6.97;;;;;;;7.02;nan;103101.16;5092100;28;20040;-69
2022/03/20 10:59:23;;;;;;;11.40;6.60;;;;;;;6.97;nan;103078.97;5082838;28;20050;-70
2022/03/20 11:01:49;;;;;;;11.82;6.18;;;;;;;7.01;nan;103081.13;5103345;28;20060;-70
2022/03/20 11:04:15;;;;;;;12.57;7.05;;;;;;;7.10;nan;103074.28;5097655;28;20032;-70
2022/03/20 11:06:47;;;;;;;11.13;6.25;;;;;;;7.18;nan;103087.53;5097363;28;20058;-70
2022/03/20 11:09:13;;;;;;;8.25;5.43;;;;;;;7.27;nan;103077.19;5098102;28;20024;-72
2022/03/20 11:11:51;;;;;;;10.18;5.72;;;;;;;7.29;nan;103064.78;5074585;28;20044;-70
2022/03/20 11:14:25;;;;;;;12.23;6.97;;;;;;;7.26;nan;103067.69;5091830;28;20090;-71
2022/03/20 11:17:06;;;;;;;11.27;7.15;;;;;;;7.16;nan;103055.41;5086224;28;20035;-70
2022/03/20 11:19:34;;;;;;;13.20;6.72;;;;;;;7.26;nan;103057.19;5104401;28;20028;-70
2022/03/20 11:22:09;;;;;;;11.63;6.70;;;;;;;7.42;nan;103050.44;5109375;28;20035;-69
2022/03/20 11:24:36;;;;;;;10.07;6.50;;;;;;;7.54;nan;103037.16;5110800;28;20113;-70
2022/03/20 11:27:03;;;;;;;9.35;5.63;;;;;;;7.62;nan;103051.25;5100357;28;20036;-70
2022/03/20 11:29:50;;;;;;;12.75;6.75;;;;;;;7.57;nan;103050.03;5089735;28;20040;-71
2022/03/20 11:32:18;;;;;;;11.13;6.18;;;;;;;7.57;nan;103050.84;5080174;28;20047;-69
2022/03/20 11:34:48;;;;;;;10.75;6.00;;;;;;;7.38;nan;103020.22;5102575;28;20474;-70
2022/03/20 11:37:15;;;;;;;8.52;5.45;;;;;;;7.30;nan;103012.19;5102803;28;20149;-68
2022/03/20 11:40:08;;;;;;;8.75;5.68;;;;;;;7.48;nan;103030.69;5096307;28;20032;-70
2022/03/20 11:42:33;;;;;;;9.48;6.07;;;;;;;7.51;nan;103021.72;5100793;28;20047;-71
2022/03/20 11:45:02;;;;;;;11.70;6.03;;;;;;;7.58;nan;103018.41;5102731;28;20028;-68
2022/03/20 11:47:50;;;;;;;12.20;6.72;;;;;;;7.56;nan;103004.59;5104056;28;20047;-70
2022/03/20 11:50:25;;;;;;;11.15;6.70;;;;;;;7.55;nan;103002.13;5092574;28;20042;-72
2022/03/20 11:52:58;;;;;;;14.18;7.15;;;;;;;7.66;nan;103022.94;5098797;28;20028;-70
2022/03/20 11:55:29;;;;;;;10.13;6.75;;;;;;;7.74;nan;103022.25;5096752;28;20146;-70
2022/03/20 11:57:59;;;;;;;12.65;7.38;;;;;;;7.80;nan;103005.94;5073641;28;20044;-71
2022/03/20 12:00:29;;;;;;;;;;;;;;;7.93;nan;103005.63;5079730;28;20490;-69
2022/03/20 12:03:13;;;;;;;12.93;6.85;;;;;;;7.91;nan;102997.06;5081559;28;20368;-70
2022/03/20 12:05:42;;;;;;;11.43;6.75;;;;;;;7.97;nan;102991.25;5092165;28;20051;-70
2022/03/20 12:08:25;;;;;;;14.25;7.10;;;;;;;7.99;nan;102992.75;5102381;28;20092;-71
2022/03/20 12:11:15;;;;;;;13.05;7.53;;;;;;;8.04;nan;102981.81;5105302;28;20093;-70
2022/03/20 12:13:46;;;;;;;;;;;;;;;8.07;nan;102982.38;5109638;28;20489;-70
2022/03/20 12:16:11;;;;;;;11.07;6.72;;;;;;;8.15;nan;102976.41;5101100;28;19912;-70
2022/03/20 12:19:11;;;;;;;12.63;6.90;;;;;;;8.31;nan;102971.34;5101636;28;20123;-71
2022/03/20 12:21:52;;;;;;;12.40;5.93;;;;;;;8.43;nan;102969.38;5073832;28;20043;-71
2022/03/20 12:24:35;;;;;;;11.25;6.32;;;;;;;8.42;nan;102969.53;5112172;28;20027;-70
2022/03/20 12:27:19;;;;;;;11.15;6.40;;;;;;;8.42;nan;102969.53;5091473;28;20073;-70
2022/03/20 12:29:46;;;;;;;8.93;6.05;;;;;;;8.25;nan;102961.41;5111397;28;20040;-69
2022/03/20 12:32:15;;;;;;;14.10;6.60;;;;;;;8.23;nan;102971.22;5091689;28;20552;-70